Nearby METAR Reports

 

ELLX - Luxembourg (aut), Luxembourg
Distance from station: NNE 33km
Updated: 17/10/2021 23:20
Clear
Clear
 Wind from S
Wind: S 6 km/h
Temperature: 7°C
Dew Point: 6°C
Humidity: 93%
Barometer: 1022 hPa
Summary: Clear
Visibility: greater than 10 km
2021/10/17 21:20 ELLX 172120Z 18003KT 150V210 CAVOK 07/06 Q1022 NOSIG
LFJL - Metz-Nancy-Lorra, France
Distance from station: SSE 46km
Updated: 17/10/2021 23:00
Clear
Clear
 Wind from ESE
Wind: ESE 7 km/h
Temperature: 7°C
Wind Chill: 6°C
Dew Point: 5°C
Humidity: 87%
Barometer: 1023 hPa
Summary: Clear
Visibility: greater than 10 km
2021/10/17 21:00 LFJL 172100Z AUTO 11004KT CAVOK 07/05 Q1023 NOSIG
 
EDDR - Saarbruecken, Germany
Distance from station: E 78km
Updated: 17/10/2021 23:20
Clear
Clear
 Wind from E
Wind: E 6 km/h
Temperature: 5°C
Dew Point: 4°C
Humidity: 93%
Barometer: 1022 hPa
Summary: Clear
Visibility: greater than 10 km
2021/10/17 21:20 EDDR 172120Z 10003KT CAVOK 05/04 Q1022
LFSN - Nancy/Essey, France
Distance from station: S 78km
Updated: 17/10/2021 23:00
Partly cloudy
Partly cloudy
 Wind from SE
Wind: SE 6 km/h
Temperature: 4°C
Dew Point: 4°C
Humidity: 100%
Barometer: 1023 hPa
Clouds: Partly cloudy
Visibility: 7 km
2021/10/17 21:00 LFSN 172100Z AUTO 13003KT 7000 NSC 04/04 Q1023